sensor_id;sensor_type;location;lat;lon;timestamp;pressure;altitude;pressure_sealevel;temperature;humidity
29383;BME280;16365;51.598;7.668;2023-07-09T00:01:18;101109.09;;;30.28;34.31
29383;BME280;16365;51.598;7.668;2023-07-09T00:03:46;101110.00;;;30.25;34.22
29383;BME280;16365;51.598;7.668;2023-07-09T00:06:18;101106.91;;;30.19;34.03
29383;BME280;16365;51.598;7.668;2023-07-09T00:08:48;101118.47;;;30.15;34.44
29383;BME280;16365;51.598;7.668;2023-07-09T00:11:15;101115.66;;;30.12;34.35
29383;BME280;16365;51.598;7.668;2023-07-09T00:13:42;101108.81;;;30.09;34.80
29383;BME280;16365;51.598;7.668;2023-07-09T00:16:16;101109.38;;;30.04;34.92
29383;BME280;16365;51.598;7.668;2023-07-09T00:18:45;101103.66;;;30.04;34.51
29383;BME280;16365;51.598;7.668;2023-07-09T00:21:20;101108.66;;;30.00;34.47
29383;BME280;16365;51.598;7.668;2023-07-09T00:23:48;101116.91;;;29.98;34.98
29383;BME280;16365;51.598;7.668;2023-07-09T00:26:17;101123.16;;;29.93;35.00
29383;BME280;16365;51.598;7.668;2023-07-09T00:28:45;101119.63;;;29.89;34.79
29383;BME280;16365;51.598;7.668;2023-07-09T00:31:15;101108.38;;;29.82;35.08
29383;BME280;16365;51.598;7.668;2023-07-09T00:33:45;101110.53;;;29.78;35.07
29383;BME280;16365;51.598;7.668;2023-07-09T00:36:20;101109.81;;;29.74;35.55
29383;BME280;16365;51.598;7.668;2023-07-09T00:38:47;101121.25;;;29.74;35.14
29383;BME280;16365;51.598;7.668;2023-07-09T00:41:20;101111.53;;;29.71;35.23
29383;BME280;16365;51.598;7.668;2023-07-09T00:43:49;101107.50;;;29.68;35.45
29383;BME280;16365;51.598;7.668;2023-07-09T00:49:05;101117.09;;;29.62;35.77
29383;BME280;16365;51.598;7.668;2023-07-09T00:51:37;101111.94;;;29.57;35.58
29383;BME280;16365;51.598;7.668;2023-07-09T00:54:19;101102.28;;;29.51;35.73
29383;BME280;16365;51.598;7.668;2023-07-09T00:56:49;101106.03;;;29.48;35.63
29383;BME280;16365;51.598;7.668;2023-07-09T00:59:20;101099.59;;;29.43;35.72
29383;BME280;16365;51.598;7.668;2023-07-09T01:01:48;101109.88;;;29.41;35.85
29383;BME280;16365;51.598;7.668;2023-07-09T01:04:16;101104.19;;;29.41;34.84
29383;BME280;16365;51.598;7.668;2023-07-09T01:06:51;101096.88;;;29.40;35.67
29383;BME280;16365;51.598;7.668;2023-07-09T01:09:18;101099.81;;;29.36;35.59
29383;BME280;16365;51.598;7.668;2023-07-09T01:11:45;101094.63;;;29.31;35.90
29383;BME280;16365;51.598;7.668;2023-07-09T01:14:14;101098.84;;;29.27;36.13
29383;BME280;16365;51.598;7.668;2023-07-09T01:16:46;101106.69;;;29.23;36.35
29383;BME280;16365;51.598;7.668;2023-07-09T01:19:14;101102.31;;;29.18;35.89
29383;BME280;16365;51.598;7.668;2023-07-09T01:21:43;101102.88;;;29.13;36.18
29383;BME280;16365;51.598;7.668;2023-07-09T01:24:14;101111.97;;;29.08;36.88
29383;BME280;16365;51.598;7.668;2023-07-09T01:26:42;101114.44;;;29.06;36.09
29383;BME280;16365;51.598;7.668;2023-07-09T01:29:09;101113.31;;;29.03;36.31
29383;BME280;16365;51.598;7.668;2023-07-09T01:31:36;101111.34;;;29.00;36.44
29383;BME280;16365;51.598;7.668;2023-07-09T01:34:05;101105.28;;;28.98;36.38
29383;BME280;16365;51.598;7.668;2023-07-09T01:36:31;101106.16;;;28.95;36.75
29383;BME280;16365;51.598;7.668;2023-07-09T01:38:58;101101.66;;;28.94;36.41
29383;BME280;16365;51.598;7.668;2023-07-09T01:41:24;101099.69;;;28.91;36.41
29383;BME280;16365;51.598;7.668;2023-07-09T01:43:51;101100.97;;;28.90;36.47
29383;BME280;16365;51.598;7.668;2023-07-09T01:46:19;101105.06;;;28.89;36.24
29383;BME280;16365;51.598;7.668;2023-07-09T01:48:45;101109.59;;;28.86;36.50
29383;BME280;16365;51.598;7.668;2023-07-09T01:51:14;101116.22;;;28.83;36.39
29383;BME280;16365;51.598;7.668;2023-07-09T01:53:43;101118.69;;;28.81;36.57
29383;BME280;16365;51.598;7.668;2023-07-09T01:56:11;101117.09;;;28.80;36.41
29383;BME280;16365;51.598;7.668;2023-07-09T01:58:38;101113.44;;;28.80;36.46
29383;BME280;16365;51.598;7.668;2023-07-09T02:01:08;101109.44;;;28.77;36.35
29383;BME280;16365;51.598;7.668;2023-07-09T02:03:38;101111.91;;;28.75;36.41
29383;BME280;16365;51.598;7.668;2023-07-09T02:06:05;101107.91;;;28.73;36.79
29383;BME280;16365;51.598;7.668;2023-07-09T02:08:37;101105.50;;;28.71;36.62
29383;BME280;16365;51.598;7.668;2023-07-09T02:11:04;101102.75;;;28.67;36.66
29383;BME280;16365;51.598;7.668;2023-07-09T02:13:32;101101.91;;;28.67;36.61
29383;BME280;16365;51.598;7.668;2023-07-09T02:15:58;101102.00;;;28.63;36.80
29383;BME280;16365;51.598;7.668;2023-07-09T02:18:25;101100.03;;;28.60;36.82
29383;BME280;16365;51.598;7.668;2023-07-09T02:20:52;101102.53;;;28.58;36.78
29383;BME280;16365;51.598;7.668;2023-07-09T02:23:18;101104.22;;;28.56;36.88
29383;BME280;16365;51.598;7.668;2023-07-09T02:25:45;101104.66;;;28.54;36.68
29383;BME280;16365;51.598;7.668;2023-07-09T02:28:11;101102.69;;;28.51;36.93
29383;BME280;16365;51.598;7.668;2023-07-09T02:30:38;101099.50;;;28.49;36.83
29383;BME280;16365;51.598;7.668;2023-07-09T02:33:05;101096.25;;;28.47;36.83
29383;BME280;16365;51.598;7.668;2023-07-09T02:35:32;101098.75;;;28.45;36.75
29383;BME280;16365;51.598;7.668;2023-07-09T02:37:58;101100.44;;;28.42;37.09
29383;BME280;16365;51.598;7.668;2023-07-09T02:40:25;101111.06;;;28.42;36.74
29383;BME280;16365;51.598;7.668;2023-07-09T02:42:51;101109.91;;;28.39;36.70
29383;BME280;16365;51.598;7.668;2023-07-09T02:45:17;101116.84;;;28.38;37.18
29383;BME280;16365;51.598;7.668;2023-07-09T02:47:44;101112.38;;;28.37;36.82
29383;BME280;16365;51.598;7.668;2023-07-09T02:50:11;101110.78;;;28.36;36.75
29383;BME280;16365;51.598;7.668;2023-07-09T02:52:39;101114.06;;;28.35;37.20
29383;BME280;16365;51.598;7.668;2023-07-09T02:55:06;101118.53;;;28.36;36.38
29383;BME280;16365;51.598;7.668;2023-07-09T02:57:32;101114.00;;;28.38;36.72
29383;BME280;16365;51.598;7.668;2023-07-09T02:59:59;101117.72;;;28.35;37.33
29383;BME280;16365;51.598;7.668;2023-07-09T03:02:26;101131.56;;;28.33;36.94
29383;BME280;16365;51.598;7.668;2023-07-09T03:04:53;101133.28;;;28.31;36.80
29383;BME280;16365;51.598;7.668;2023-07-09T03:07:19;101131.69;;;28.30;37.52
29383;BME280;16365;51.598;7.668;2023-07-09T03:09:46;101132.94;;;28.29;37.02
29383;BME280;16365;51.598;7.668;2023-07-09T03:12:12;101135.41;;;28.27;37.15
29383;BME280;16365;51.598;7.668;2023-07-09T03:14:39;101137.91;;;28.25;37.17
29383;BME280;16365;51.598;7.668;2023-07-09T03:17:05;101128.97;;;28.23;37.24
29383;BME280;16365;51.598;7.668;2023-07-09T03:19:32;101132.25;;;28.21;37.22
29383;BME280;16365;51.598;7.668;2023-07-09T03:22:02;101131.47;;;28.21;37.06
29383;BME280;16365;51.598;7.668;2023-07-09T03:24:29;101140.47;;;28.19;37.18
29383;BME280;16365;51.598;7.668;2023-07-09T03:26:56;101142.94;;;28.17;37.12
29383;BME280;16365;51.598;7.668;2023-07-09T03:29:23;101145.00;;;28.16;37.52
29383;BME280;16365;51.598;7.668;2023-07-09T03:31:50;101149.09;;;28.15;37.22
29383;BME280;16365;51.598;7.668;2023-07-09T03:34:16;101144.63;;;28.14;37.85
29383;BME280;16365;51.598;7.668;2023-07-09T03:36:44;101147.09;;;28.12;37.29
29383;BME280;16365;51.598;7.668;2023-07-09T03:39:11;101145.50;;;28.11;37.65
29383;BME280;16365;51.598;7.668;2023-07-09T03:41:38;101135.75;;;28.09;37.44
29383;BME280;16365;51.598;7.668;2023-07-09T03:44:04;101147.63;;;28.07;37.49
29383;BME280;16365;51.598;7.668;2023-07-09T03:46:31;101143.63;;;28.05;37.82
29383;BME280;16365;51.598;7.668;2023-07-09T03:48:58;101153.03;;;28.02;37.74
29383;BME280;16365;51.598;7.668;2023-07-09T03:51:25;101155.53;;;28.00;37.57
29383;BME280;16365;51.598;7.668;2023-07-09T03:53:52;101153.53;;;27.97;37.81
29383;BME280;16365;51.598;7.668;2023-07-09T03:56:20;101156.84;;;27.95;37.85
29383;BME280;16365;51.598;7.668;2023-07-09T03:58:47;101151.19;;;27.91;37.70
29383;BME280;16365;51.598;7.668;2023-07-09T04:01:13;101152.88;;;27.89;38.26
29383;BME280;16365;51.598;7.668;2023-07-09T04:03:43;101147.63;;;27.87;38.13
29383;BME280;16365;51.598;7.668;2023-07-09T04:06:10;101154.97;;;27.85;38.19
29383;BME280;16365;51.598;7.668;2023-07-09T04:08:36;101157.81;;;27.85;38.38
29383;BME280;16365;51.598;7.668;2023-07-09T04:11:03;101152.13;;;27.85;38.21
29383;BME280;16365;51.598;7.668;2023-07-09T04:13:29;101155.81;;;27.85;38.15
29383;BME280;16365;51.598;7.668;2023-07-09T04:15:57;101153.75;;;27.86;38.35
29383;BME280;16365;51.598;7.668;2023-07-09T04:18:23;101156.16;;;27.87;38.23
29383;BME280;16365;51.598;7.668;2023-07-09T04:20:51;101155.72;;;27.89;38.24
29383;BME280;16365;51.598;7.668;2023-07-09T04:23:18;101155.72;;;27.89;38.27
29383;BME280;16365;51.598;7.668;2023-07-09T04:25:46;101150.47;;;27.87;38.24
29383;BME280;16365;51.598;7.668;2023-07-09T04:28:13;101150.81;;;27.89;38.33
29383;BME280;16365;51.598;7.668;2023-07-09T04:30:46;101152.50;;;27.87;38.63
29383;BME280;16365;51.598;7.668;2023-07-09T04:33:15;101158.94;;;27.91;38.66
29383;BME280;16365;51.598;7.668;2023-07-09T04:35:45;101156.44;;;27.93;38.68
29383;BME280;16365;51.598;7.668;2023-07-09T04:38:13;101151.13;;;27.95;38.61
29383;BME280;16365;51.598;7.668;2023-07-09T04:40:40;101153.09;;;27.98;38.72
29383;BME280;16365;51.598;7.668;2023-07-09T04:43:07;101155.09;;;28.01;38.92
29383;BME280;16365;51.598;7.668;2023-07-09T04:45:34;101158.28;;;28.03;38.40
29383;BME280;16365;51.598;7.668;2023-07-09T04:48:01;101155.81;;;28.05;38.84
29383;BME280;16365;51.598;7.668;2023-07-09T04:50:27;101156.16;;;28.07;38.86
29383;BME280;16365;51.598;7.668;2023-07-09T04:52:54;101161.44;;;28.09;38.83
29383;BME280;16365;51.598;7.668;2023-07-09T04:55:20;101174.00;;;28.11;38.82
29383;BME280;16365;51.598;7.668;2023-07-09T04:57:47;101170.28;;;28.14;38.84
29383;BME280;16365;51.598;7.668;2023-07-09T05:00:15;101162.91;;;28.17;38.92
29383;BME280;16365;51.598;7.668;2023-07-09T05:02:46;101164.09;;;28.20;38.78
29383;BME280;16365;51.598;7.668;2023-07-09T05:05:12;101161.59;;;28.22;38.55
29383;BME280;16365;51.598;7.668;2023-07-09T05:07:39;101162.38;;;28.22;38.49
29383;BME280;16365;51.598;7.668;2023-07-09T05:10:06;101156.69;;;28.22;38.75
29383;BME280;16365;51.598;7.668;2023-07-09T05:12:33;101157.94;;;28.21;38.79
29383;BME280;16365;51.598;7.668;2023-07-09T05:14:59;101159.19;;;28.20;38.69
29383;BME280;16365;51.598;7.668;2023-07-09T05:17:26;101165.22;;;28.22;38.95
29383;BME280;16365;51.598;7.668;2023-07-09T05:19:53;101163.97;;;28.23;39.19
29383;BME280;16365;51.598;7.668;2023-07-09T05:22:19;101163.13;;;28.26;39.14
29383;BME280;16365;51.598;7.668;2023-07-09T05:24:46;101170.81;;;28.29;39.50
29383;BME280;16365;51.598;7.668;2023-07-09T05:27:12;101166.25;;;28.32;39.71
29383;BME280;16365;51.598;7.668;2023-07-09T05:29:39;101160.50;;;28.35;39.29
29383;BME280;16365;51.598;7.668;2023-07-09T05:32:06;101160.44;;;28.39;38.96
29383;BME280;16365;51.598;7.668;2023-07-09T05:34:32;101159.19;;;28.40;39.03
29383;BME280;16365;51.598;7.668;2023-07-09T05:36:59;101157.88;;;28.45;38.75
29383;BME280;16365;51.598;7.668;2023-07-09T05:39:26;101163.50;;;28.48;39.23
29383;BME280;16365;51.598;7.668;2023-07-09T05:41:54;101164.22;;;28.52;38.83
29383;BME280;16365;51.598;7.668;2023-07-09T05:44:21;101159.22;;;28.56;39.51
29383;BME280;16365;51.598;7.668;2023-07-09T05:46:47;101167.72;;;28.60;39.02
29383;BME280;16365;51.598;7.668;2023-07-09T05:49:14;101167.19;;;28.65;39.37
29383;BME280;16365;51.598;7.668;2023-07-09T05:51:41;101168.72;;;28.69;39.37
29383;BME280;16365;51.598;7.668;2023-07-09T05:54:08;101172.66;;;28.76;39.40
29383;BME280;16365;51.598;7.668;2023-07-09T05:56:35;101172.13;;;28.81;39.43
29383;BME280;16365;51.598;7.668;2023-07-09T05:59:01;101182.22;;;28.85;39.24
29383;BME280;16365;51.598;7.668;2023-07-09T06:01:28;101173.91;;;28.91;39.24
29383;BME280;16365;51.598;7.668;2023-07-09T06:03:55;101180.38;;;28.95;39.07
29383;BME280;16365;51.598;7.668;2023-07-09T06:06:23;101178.63;;;29.01;39.25
29383;BME280;16365;51.598;7.668;2023-07-09T06:08:50;101186.66;;;29.06;38.95
29383;BME280;16365;51.598;7.668;2023-07-09T06:11:17;101174.72;;;29.11;38.81
29383;BME280;16365;51.598;7.668;2023-07-09T06:13:46;101179.09;;;29.16;38.78
29383;BME280;16365;51.598;7.668;2023-07-09T06:16:13;101178.91;;;29.23;38.66
29383;BME280;16365;51.598;7.668;2023-07-09T06:18:40;101177.91;;;29.30;38.83
29383;BME280;16365;51.598;7.668;2023-07-09T06:21:07;101177.34;;;29.35;38.83
29383;BME280;16365;51.598;7.668;2023-07-09T06:23:35;101173.53;;;29.41;38.84
29383;BME280;16365;51.598;7.668;2023-07-09T06:26:02;101180.31;;;29.48;38.85
29383;BME280;16365;51.598;7.668;2023-07-09T06:28:30;101174.84;;;29.53;38.86
29383;BME280;16365;51.598;7.668;2023-07-09T06:30:57;101174.72;;;29.60;38.11
29383;BME280;16365;51.598;7.668;2023-07-09T06:33:25;101182.19;;;29.70;38.32
29383;BME280;16365;51.598;7.668;2023-07-09T06:36:00;101177.63;;;29.73;38.48
29383;BME280;16365;51.598;7.668;2023-07-09T06:38:28;101177.44;;;29.80;38.71
29383;BME280;16365;51.598;7.668;2023-07-09T06:40:56;101179.75;;;29.85;38.53
29383;BME280;16365;51.598;7.668;2023-07-09T06:43:23;101180.34;;;29.93;38.57
29383;BME280;16365;51.598;7.668;2023-07-09T06:45:55;101186.75;;;29.97;38.92
29383;BME280;16365;51.598;7.668;2023-07-09T06:48:25;101185.78;;;30.04;38.74
29383;BME280;16365;51.598;7.668;2023-07-09T06:50:53;101177.78;;;30.11;38.65
29383;BME280;16365;51.598;7.668;2023-07-09T06:53:21;101177.16;;;30.20;38.56
29383;BME280;16365;51.598;7.668;2023-07-09T06:55:48;101175.72;;;30.28;38.65
29383;BME280;16365;51.598;7.668;2023-07-09T06:58:22;101182.00;;;30.36;38.47
29383;BME280;16365;51.598;7.668;2023-07-09T07:00:51;101171.16;;;30.43;38.39
29383;BME280;16365;51.598;7.668;2023-07-09T07:03:18;101177.47;;;30.51;38.55
29383;BME280;16365;51.598;7.668;2023-07-09T07:05:47;101180.91;;;30.59;38.40
29383;BME280;16365;51.598;7.668;2023-07-09T07:08:17;101179.44;;;30.67;38.68
29383;BME280;16365;51.598;7.668;2023-07-09T07:10:45;101184.84;;;30.78;38.16
29383;BME280;16365;51.598;7.668;2023-07-09T07:13:13;101176.03;;;30.85;38.18
29383;BME280;16365;51.598;7.668;2023-07-09T07:15:40;101176.16;;;30.94;38.02
29383;BME280;16365;51.598;7.668;2023-07-09T07:18:07;101178.31;;;31.03;38.39
29383;BME280;16365;51.598;7.668;2023-07-09T07:20:34;101186.25;;;31.11;38.23
29383;BME280;16365;51.598;7.668;2023-07-09T07:23:01;101176.47;;;31.21;37.94
29383;BME280;16365;51.598;7.668;2023-07-09T07:25:31;101171.34;;;31.29;37.59
29383;BME280;16365;51.598;7.668;2023-07-09T07:27:58;101180.06;;;31.38;36.94
29383;BME280;16365;51.598;7.668;2023-07-09T07:30:24;101178.09;;;31.48;36.67
29383;BME280;16365;51.598;7.668;2023-07-09T07:32:51;101185.16;;;31.56;36.53
29383;BME280;16365;51.598;7.668;2023-07-09T07:35:18;101175.84;;;31.65;36.06
29383;BME280;16365;51.598;7.668;2023-07-09T07:37:46;101182.47;;;31.74;36.22
29383;BME280;16365;51.598;7.668;2023-07-09T07:40:12;101177.66;;;31.84;36.15
29383;BME280;16365;51.598;7.668;2023-07-09T07:42:39;101180.13;;;31.95;36.38
29383;BME280;16365;51.598;7.668;2023-07-09T07:45:06;101178.13;;;32.05;36.28
29383;BME280;16365;51.598;7.668;2023-07-09T07:47:35;101183.00;;;32.17;35.96
29383;BME280;16365;51.598;7.668;2023-07-09T07:50:05;101180.06;;;32.30;36.23
29383;BME280;16365;51.598;7.668;2023-07-09T07:52:32;101184.03;;;32.45;36.23
29383;BME280;16365;51.598;7.668;2023-07-09T07:54:59;101187.16;;;32.60;35.91
29383;BME280;16365;51.598;7.668;2023-07-09T07:57:27;101182.44;;;32.75;35.72
29383;BME280;16365;51.598;7.668;2023-07-09T07:59:53;101180.50;;;32.94;35.91
29383;BME280;16365;51.598;7.668;2023-07-09T08:02:20;101176.84;;;33.12;35.59
29383;BME280;16365;51.598;7.668;2023-07-09T08:04:47;101175.19;;;33.33;35.13
29383;BME280;16365;51.598;7.668;2023-07-09T08:07:13;101172.69;;;33.53;35.09
29383;BME280;16365;51.598;7.668;2023-07-09T08:09:40;101170.94;;;33.74;34.72
29383;BME280;16365;51.598;7.668;2023-07-09T08:12:07;101165.88;;;33.96;34.72
29383;BME280;16365;51.598;7.668;2023-07-09T08:14:44;101170.16;;;34.19;34.09
29383;BME280;16365;51.598;7.668;2023-07-09T08:17:11;101181.00;;;34.43;34.03
29383;BME280;16365;51.598;7.668;2023-07-09T08:19:49;101177.63;;;34.63;33.34
29383;BME280;16365;51.598;7.668;2023-07-09T08:22:16;101180.88;;;34.89;34.11
29383;BME280;16365;51.598;7.668;2023-07-09T08:24:50;101168.13;;;35.14;32.93
29383;BME280;16365;51.598;7.668;2023-07-09T08:27:18;101166.69;;;35.42;32.67
29383;BME280;16365;51.598;7.668;2023-07-09T08:29:46;101162.84;;;35.69;33.14
29383;BME280;16365;51.598;7.668;2023-07-09T08:32:13;101165.50;;;35.97;32.41
29383;BME280;16365;51.598;7.668;2023-07-09T08:34:41;101167.63;;;36.26;31.96
29383;BME280;16365;51.598;7.668;2023-07-09T08:37:28;101166.66;;;36.59;31.42
29383;BME280;16365;51.598;7.668;2023-07-09T08:39:55;101162.34;;;36.84;31.05
29383;BME280;16365;51.598;7.668;2023-07-09T08:42:31;101163.25;;;37.04;30.29
29383;BME280;16365;51.598;7.668;2023-07-09T08:48:19;101157.16;;;37.58;29.60
29383;BME280;16365;51.598;7.668;2023-07-09T08:50:57;101165.63;;;37.82;28.76
29383;BME280;16365;51.598;7.668;2023-07-09T08:53:35;101152.44;;;38.01;28.54
29383;BME280;16365;51.598;7.668;2023-07-09T08:56:03;101142.69;;;38.25;28.97
29383;BME280;16365;51.598;7.668;2023-07-09T08:58:31;101152.09;;;38.46;28.73
29383;BME280;16365;51.598;7.668;2023-07-09T09:01:01;101153.03;;;38.63;27.88
29383;BME280;16365;51.598;7.668;2023-07-09T09:03:40;101156.66;;;38.84;27.00
29383;BME280;16365;51.598;7.668;2023-07-09T09:06:19;101141.25;;;39.04;27.63
29383;BME280;16365;51.598;7.668;2023-07-09T09:14:57;101145.47;;;39.51;26.21
29383;BME280;16365;51.598;7.668;2023-07-09T09:17:25;101151.00;;;39.55;26.69
29383;BME280;16365;51.598;7.668;2023-07-09T09:19:58;101147.59;;;39.51;25.48
29383;BME280;16365;51.598;7.668;2023-07-09T09:22:31;101144.38;;;39.43;26.13
29383;BME280;16365;51.598;7.668;2023-07-09T09:25:05;101148.56;;;39.37;25.29
29383;BME280;16365;51.598;7.668;2023-07-09T09:27:38;101141.13;;;39.30;25.67
29383;BME280;16365;51.598;7.668;2023-07-09T09:30:15;101143.97;;;39.19;26.09
29383;BME280;16365;51.598;7.668;2023-07-09T09:32:44;101147.63;;;39.14;25.58
29383;BME280;16365;51.598;7.668;2023-07-09T09:35:13;101147.84;;;39.04;25.53
29383;BME280;16365;51.598;7.668;2023-07-09T09:37:50;101143.56;;;38.94;25.36
29383;BME280;16365;51.598;7.668;2023-07-09T09:40:19;101138.22;;;38.87;25.55
29383;BME280;16365;51.598;7.668;2023-07-09T09:42:51;101137.13;;;38.79;25.75
29383;BME280;16365;51.598;7.668;2023-07-09T09:45:19;101138.34;;;38.72;25.65
29383;BME280;16365;51.598;7.668;2023-07-09T09:47:48;101137.25;;;38.64;25.72
29383;BME280;16365;51.598;7.668;2023-07-09T09:50:17;101138.00;;;38.59;25.72
29383;BME280;16365;51.598;7.668;2023-07-09T09:52:46;101143.72;;;38.53;25.57
29383;BME280;16365;51.598;7.668;2023-07-09T09:55:22;101133.94;;;38.45;25.40
29383;BME280;16365;51.598;7.668;2023-07-09T09:57:53;101137.06;;;38.42;25.81
29383;BME280;16365;51.598;7.668;2023-07-09T10:00:26;101136.50;;;38.38;25.44
29383;BME280;16365;51.598;7.668;2023-07-09T10:03:02;101129.63;;;38.35;25.47
29383;BME280;16365;51.598;7.668;2023-07-09T10:06:00;101130.38;;;38.30;26.18
29383;BME280;16365;51.598;7.668;2023-07-09T10:16:53;101134.53;;;38.29;25.16
29383;BME280;16365;51.598;7.668;2023-07-09T10:19:48;101129.00;;;38.25;25.98
29383;BME280;16365;51.598;7.668;2023-07-09T10:22:24;101130.56;;;38.26;26.01
29383;BME280;16365;51.598;7.668;2023-07-09T10:25:01;101126.66;;;38.29;25.74
29383;BME280;16365;51.598;7.668;2023-07-09T10:27:35;101129.56;;;38.29;26.00
29383;BME280;16365;51.598;7.668;2023-07-09T10:33:01;101129.78;;;38.26;25.56
29383;BME280;16365;51.598;7.668;2023-07-09T10:35:38;101125.84;;;38.29;25.27
29383;BME280;16365;51.598;7.668;2023-07-09T10:40:49;101117.47;;;38.31;25.15
29383;BME280;16365;51.598;7.668;2023-07-09T10:43:32;101109.56;;;38.31;26.21
29383;BME280;16365;51.598;7.668;2023-07-09T10:46:04;101118.03;;;38.35;25.90
29383;BME280;16365;51.598;7.668;2023-07-09T10:48:38;101108.03;;;38.36;25.25
29383;BME280;16365;51.598;7.668;2023-07-09T10:51:37;101108.03;;;38.36;25.64
29383;BME280;16365;51.598;7.668;2023-07-09T10:54:18;101110.19;;;38.41;24.64
29383;BME280;16365;51.598;7.668;2023-07-09T10:56:53;101101.28;;;38.45;24.56
29383;BME280;16365;51.598;7.668;2023-07-09T10:59:35;101099.66;;;38.44;25.14
29383;BME280;16365;51.598;7.668;2023-07-09T11:02:26;101102.84;;;38.46;25.19
29383;BME280;16365;51.598;7.668;2023-07-09T11:05:02;101103.91;;;38.48;24.22
29383;BME280;16365;51.598;7.668;2023-07-09T11:10:29;101107.34;;;38.47;24.58
29383;BME280;16365;51.598;7.668;2023-07-09T11:13:10;101109.97;;;38.45;24.72
29383;BME280;16365;51.598;7.668;2023-07-09T11:15:42;101103.91;;;38.48;24.03
29383;BME280;16365;51.598;7.668;2023-07-09T11:18:19;101103.66;;;38.46;24.70
29383;BME280;16365;51.598;7.668;2023-07-09T11:21:05;101094.94;;;38.46;24.88
29383;BME280;16365;51.598;7.668;2023-07-09T11:31:44;101092.44;;;38.60;23.77
29383;BME280;16365;51.598;7.668;2023-07-09T11:36:58;101087.41;;;38.60;25.02
29383;BME280;16365;51.598;7.668;2023-07-09T11:44:58;101065.31;;;38.68;24.00
29383;BME280;16365;51.598;7.668;2023-07-09T11:50:40;101068.50;;;38.70;24.71
29383;BME280;16365;51.598;7.668;2023-07-09T11:55:40;101063.56;;;38.76;23.94
29383;BME280;16365;51.598;7.668;2023-07-09T11:58:10;101055.16;;;38.78;23.78
29383;BME280;16365;51.598;7.668;2023-07-09T12:00:55;101054.09;;;38.76;24.54
29383;BME280;16365;51.598;7.668;2023-07-09T12:03:35;101045.66;;;38.78;24.60
29383;BME280;16365;51.598;7.668;2023-07-09T12:06:07;101047.81;;;38.83;23.91
29383;BME280;16365;51.598;7.668;2023-07-09T12:08:40;101037.28;;;38.86;23.96
29383;BME280;16365;51.598;7.668;2023-07-09T12:11:19;101032.78;;;38.85;24.69
29383;BME280;16365;51.598;7.668;2023-07-09T12:13:45;101017.78;;;38.92;23.90
29383;BME280;16365;51.598;7.668;2023-07-09T12:18:50;101021.78;;;39.00;24.07
29383;BME280;16365;51.598;7.668;2023-07-09T12:21:18;101017.06;;;39.02;23.50
29383;BME280;16365;51.598;7.668;2023-07-09T12:23:45;101008.09;;;39.06;23.84
29383;BME280;16365;51.598;7.668;2023-07-09T12:26:14;101009.97;;;39.09;24.14
29383;BME280;16365;51.598;7.668;2023-07-09T12:28:41;101013.13;;;39.11;23.69
29383;BME280;16365;51.598;7.668;2023-07-09T12:31:15;101015.53;;;39.13;23.77
29383;BME280;16365;51.598;7.668;2023-07-09T12:33:49;101003.38;;;39.14;23.35
29383;BME280;16365;51.598;7.668;2023-07-09T12:36:19;101008.44;;;39.19;23.75
29383;BME280;16365;51.598;7.668;2023-07-09T12:38:49;101005.00;;;39.21;23.29
29383;BME280;16365;51.598;7.668;2023-07-09T12:41:20;101002.41;;;39.23;24.21
29383;BME280;16365;51.598;7.668;2023-07-09T12:43:51;101001.88;;;39.24;23.82
29383;BME280;16365;51.598;7.668;2023-07-09T12:46:18;100992.91;;;39.28;23.65
29383;BME280;16365;51.598;7.668;2023-07-09T12:48:46;100994.50;;;39.29;24.04
29383;BME280;16365;51.598;7.668;2023-07-09T12:51:16;100991.59;;;39.29;24.04
29383;BME280;16365;51.598;7.668;2023-07-09T12:53:44;100982.38;;;39.30;23.75
29383;BME280;16365;51.598;7.668;2023-07-09T12:56:13;100991.06;;;39.30;23.67
29383;BME280;16365;51.598;7.668;2023-07-09T12:58:41;100988.44;;;39.32;24.19
29383;BME280;16365;51.598;7.668;2023-07-09T13:01:15;100984.75;;;39.32;23.65
29383;BME280;16365;51.598;7.668;2023-07-09T13:03:54;100983.44;;;39.33;23.89
29383;BME280;16365;51.598;7.668;2023-07-09T13:06:30;100971.59;;;39.37;23.87
29383;BME280;16365;51.598;7.668;2023-07-09T13:09:01;100972.38;;;39.43;23.74
29383;BME280;16365;51.598;7.668;2023-07-09T13:11:35;100965.00;;;39.42;24.24
29383;BME280;16365;51.598;7.668;2023-07-09T13:14:05;100959.19;;;39.47;23.97
29383;BME280;16365;51.598;7.668;2023-07-09T13:16:40;100962.88;;;39.48;23.65
29383;BME280;16365;51.598;7.668;2023-07-09T13:19:11;100960.00;;;39.53;23.30
29383;BME280;16365;51.598;7.668;2023-07-09T13:21:39;100964.47;;;39.54;23.78
29383;BME280;16365;51.598;7.668;2023-07-09T13:24:27;100969.50;;;39.54;23.66
29383;BME280;16365;51.598;7.668;2023-07-09T13:26:54;100966.59;;;39.59;23.56
29383;BME280;16365;51.598;7.668;2023-07-09T13:29:25;100958.66;;;39.60;23.23
29383;BME280;16365;51.598;7.668;2023-07-09T13:31:51;100960.28;;;39.61;23.50
29383;BME280;16365;51.598;7.668;2023-07-09T13:34:22;100965.28;;;39.61;23.29
29383;BME280;16365;51.598;7.668;2023-07-09T13:36:50;100956.84;;;39.63;23.75
29383;BME280;16365;51.598;7.668;2023-07-09T13:39:17;100963.22;;;39.67;23.56
29383;BME280;16365;51.598;7.668;2023-07-09T13:41:45;100959.22;;;39.70;22.94
29383;BME280;16365;51.598;7.668;2023-07-09T13:44:18;100953.97;;;39.68;23.64
29383;BME280;16365;51.598;7.668;2023-07-09T13:46:45;100952.38;;;39.67;23.28
29383;BME280;16365;51.598;7.668;2023-07-09T13:49:17;100943.44;;;39.65;23.40
29383;BME280;16365;51.598;7.668;2023-07-09T13:51:46;100936.00;;;39.64;22.59
29383;BME280;16365;51.598;7.668;2023-07-09T13:54:26;100935.97;;;39.58;23.27
29383;BME280;16365;51.598;7.668;2023-07-09T13:56:53;100941.53;;;39.62;22.50